createdAt,value
2024-05-09T00:01:01.877Z,97.09
2024-05-09T00:03:07.470Z,97.29
2024-05-09T00:05:13.268Z,97.21
2024-05-09T00:07:15.848Z,96.84
2024-05-09T00:09:18.276Z,96.73
2024-05-09T00:11:20.964Z,96.87
2024-05-09T00:13:23.592Z,96.90
2024-05-09T00:15:26.024Z,96.53
2024-05-09T00:17:28.453Z,96.47
2024-05-09T00:19:31.052Z,96.16
2024-05-09T00:21:33.536Z,95.98
2024-05-09T00:23:36.013Z,95.64
2024-05-09T00:25:38.640Z,95.46
2024-05-09T00:27:41.969Z,95.19
2024-05-09T00:29:44.366Z,94.84
2024-05-09T00:31:46.750Z,94.74
2024-05-09T00:33:49.364Z,94.49
2024-05-09T00:35:51.893Z,94.23
2024-05-09T00:37:54.319Z,93.91
2024-05-09T00:39:56.814Z,93.77
2024-05-09T00:41:59.947Z,93.54
2024-05-09T00:44:02.539Z,93.91
2024-05-09T00:46:05.829Z,93.94
2024-05-09T00:48:09.716Z,94.47
2024-05-09T00:50:19.226Z,94.92
2024-05-09T00:52:25.471Z,95.52
2024-05-09T00:54:27.864Z,95.95
2024-05-09T00:56:30.489Z,96.93
2024-05-09T00:58:32.943Z,96.80
2024-05-09T01:00:39.498Z,97.22
2024-05-09T01:02:43.545Z,97.64
2024-05-09T01:04:46.218Z,97.79
2024-05-09T01:06:48.728Z,98.36
2024-05-09T01:08:51.293Z,98.19
2024-05-09T01:10:53.864Z,98.44
2024-05-09T01:12:56.332Z,98.87
2024-05-09T01:14:58.798Z,98.71
2024-05-09T01:17:01.263Z,98.85
2024-05-09T01:19:04.993Z,98.92
2024-05-09T01:21:09.666Z,98.93
2024-05-09T01:23:14.683Z,98.85
2024-05-09T01:25:18.583Z,98.36
2024-05-09T01:27:21.582Z,98.12
2024-05-09T01:29:24.184Z,98.06
2024-05-09T01:31:26.670Z,97.97
2024-05-09T01:33:29.099Z,98.12
2024-05-09T01:35:31.597Z,97.98
2024-05-09T01:37:34.721Z,98.07
2024-05-09T01:39:37.220Z,97.82
2024-05-09T01:41:39.947Z,97.65
2024-05-09T01:43:42.344Z,97.32
2024-05-09T01:45:44.744Z,96.93
2024-05-09T01:47:47.345Z,96.93
2024-05-09T01:49:49.790Z,96.58
2024-05-09T01:51:52.160Z,96.72
2024-05-09T01:53:54.943Z,96.78
2024-05-09T01:55:57.334Z,96.54
2024-05-09T01:57:59.852Z,96.14
2024-05-09T02:00:02.218Z,95.58
2024-05-09T02:02:06.749Z,94.88
2024-05-09T02:04:09.424Z,93.04
2024-05-09T02:06:12.013Z,94.63
2024-05-09T02:08:15.466Z,98.03
2024-05-09T02:10:23.516Z,100.00
2024-05-09T02:12:32.746Z,100.00
2024-05-09T02:14:35.429Z,100.00
2024-05-09T02:16:37.861Z,100.00
2024-05-09T02:18:40.419Z,100.00
2024-05-09T02:20:43.552Z,100.00
2024-05-09T02:22:46.461Z,100.00
2024-05-09T02:24:48.937Z,100.00
2024-05-09T02:26:51.290Z,100.00
2024-05-09T02:28:53.685Z,100.00
2024-05-09T02:30:56.147Z,100.00
2024-05-09T02:32:58.791Z,100.00
2024-05-09T02:35:01.274Z,100.00
2024-05-09T02:37:03.863Z,100.00
2024-05-09T02:39:06.474Z,100.00
2024-05-09T02:41:09.287Z,100.00
2024-05-09T02:43:12.991Z,100.00
2024-05-09T02:45:15.618Z,100.00
2024-05-09T02:47:18.185Z,100.00
2024-05-09T02:49:20.766Z,100.00
2024-05-09T02:51:23.132Z,100.00
2024-05-09T02:53:25.519Z,100.00
2024-05-09T02:55:27.988Z,100.00
2024-05-09T02:57:30.344Z,100.00
2024-05-09T02:59:32.755Z,100.00
2024-05-09T03:01:35.477Z,100.00
2024-05-09T03:03:38.134Z,100.00
2024-05-09T03:05:41.110Z,100.00
2024-05-09T03:07:45.082Z,100.00
2024-05-09T03:09:54.070Z,100.00
2024-05-09T03:12:15.148Z,100.00
2024-05-09T03:14:17.936Z,100.00
2024-05-09T03:16:20.502Z,100.00
2024-05-09T03:18:22.981Z,100.00
2024-05-09T03:20:32.420Z,100.00
2024-05-09T03:22:37.024Z,100.00
2024-05-09T03:24:39.366Z,100.00
2024-05-09T03:26:42.209Z,100.00
2024-05-09T03:28:44.890Z,99.56
2024-05-09T03:30:47.317Z,99.32
2024-05-09T03:32:49.904Z,97.82
2024-05-09T03:34:52.462Z,96.37
2024-05-09T03:36:54.916Z,95.91
2024-05-09T03:38:57.267Z,96.42
2024-05-09T03:40:59.725Z,95.95
2024-05-09T03:43:02.191Z,96.71
2024-05-09T03:45:04.620Z,95.86
2024-05-09T03:47:07.165Z,96.62
2024-05-09T03:49:09.975Z,97.26
2024-05-09T03:51:12.875Z,97.60
2024-05-09T03:53:16.265Z,97.07
2024-05-09T03:55:19.170Z,97.52
2024-05-09T03:57:21.525Z,97.44
2024-05-09T03:59:24.002Z,98.86
2024-05-09T04:01:26.452Z,97.37
2024-05-09T04:03:29.133Z,97.18
2024-05-09T04:05:33.189Z,97.13
2024-05-09T04:07:36.758Z,97.40
2024-05-09T04:09:39.275Z,96.03
2024-05-09T04:11:41.847Z,96.04
2024-05-09T04:13:44.527Z,96.19
2024-05-09T04:15:47.134Z,94.99
2024-05-09T04:17:51.819Z,95.77
2024-05-09T04:20:00.848Z,96.27
2024-05-09T04:22:03.440Z,96.42
2024-05-09T04:24:06.139Z,97.47
2024-05-09T04:26:09.120Z,96.64
2024-05-09T04:28:11.724Z,95.74
2024-05-09T04:30:21.638Z,95.97
2024-05-09T04:32:32.969Z,94.11
2024-05-09T04:34:36.159Z,94.42
2024-05-09T04:36:40.309Z,95.22
2024-05-09T04:38:44.248Z,94.72
2024-05-09T04:40:46.777Z,92.55
2024-05-09T04:42:49.354Z,93.74
2024-05-09T04:44:54.224Z,92.04
2024-05-09T04:46:58.190Z,89.38
2024-05-09T04:49:01.039Z,89.57
2024-05-09T04:51:03.756Z,87.52
2024-05-09T04:53:07.609Z,87.15
2024-05-09T04:55:11.086Z,87.54
2024-05-09T04:57:13.650Z,89.73
2024-05-09T04:59:16.195Z,86.74
2024-05-09T05:01:18.751Z,88.09
2024-05-09T05:03:21.588Z,88.20
2024-05-09T05:05:24.538Z,86.04
2024-05-09T05:07:27.130Z,87.66
2024-05-09T05:09:29.600Z,85.79
2024-05-09T05:11:32.126Z,85.75
2024-05-09T05:13:37.879Z,85.62
2024-05-09T05:15:41.806Z,86.17
2024-05-09T05:17:44.407Z,86.07
2024-05-09T05:19:47.095Z,82.28
2024-05-09T05:21:49.659Z,81.61
2024-05-09T05:23:52.099Z,82.14
2024-05-09T05:25:55.174Z,80.94
2024-05-09T05:27:57.980Z,81.45
2024-05-09T05:30:00.516Z,81.66
2024-05-09T05:32:03.149Z,85.72
2024-05-09T05:34:05.708Z,81.42
2024-05-09T05:36:08.581Z,83.78
2024-05-09T05:38:11.436Z,80.15
2024-05-09T05:40:24.640Z,82.95
2024-05-09T05:42:30.909Z,81.81
2024-05-09T05:44:33.447Z,78.01
2024-05-09T05:46:36.057Z,78.71
2024-05-09T05:48:38.615Z,81.58
2024-05-09T05:50:41.150Z,79.59
2024-05-09T05:52:44.175Z,76.26
2024-05-09T05:54:48.783Z,76.30
2024-05-09T05:56:51.346Z,74.82
2024-05-09T05:58:53.904Z,75.79
2024-05-09T06:00:56.875Z,70.35
2024-05-09T06:02:59.495Z,72.76
2024-05-09T06:05:02.502Z,72.37
2024-05-09T06:07:06.402Z,70.25
2024-05-09T06:09:08.971Z,67.49
2024-05-09T06:11:11.769Z,67.24
2024-05-09T06:13:15.878Z,63.42
2024-05-09T06:15:18.427Z,61.35
2024-05-09T06:17:21.136Z,59.36
2024-05-09T06:19:25.119Z,57.86
2024-05-09T06:21:27.706Z,59.41
2024-05-09T06:23:30.276Z,61.21
2024-05-09T06:25:32.896Z,57.72
2024-05-09T06:27:35.494Z,59.83
2024-05-09T06:29:41.180Z,56.34
2024-05-09T06:31:44.414Z,60.86
2024-05-09T06:33:47.188Z,54.31
2024-05-09T06:35:49.759Z,56.54
2024-05-09T06:37:52.410Z,57.89
2024-05-09T06:39:55.907Z,57.94
2024-05-09T06:42:02.339Z,58.58
2024-05-09T06:44:04.894Z,55.45
2024-05-09T06:46:07.394Z,55.88
2024-05-09T06:48:12.110Z,53.96
2024-05-09T06:50:46.899Z,54.60
2024-05-09T06:52:49.431Z,54.61
2024-05-09T06:54:51.927Z,53.03
2024-05-09T06:56:54.469Z,49.14
2024-05-09T06:58:57.009Z,53.92
2024-05-09T07:00:59.527Z,49.90
2024-05-09T07:03:05.374Z,51.45
2024-05-09T07:05:08.785Z,49.97
2024-05-09T07:07:11.277Z,52.74
2024-05-09T07:09:13.898Z,52.29
2024-05-09T07:11:16.519Z,50.76
2024-05-09T07:13:19.496Z,49.65
2024-05-09T07:15:22.123Z,50.28
2024-05-09T07:17:24.885Z,50.39
2024-05-09T07:19:29.009Z,50.35
2024-05-09T07:21:35.689Z,49.82
2024-05-09T07:23:39.065Z,49.06
2024-05-09T07:25:42.065Z,48.83
2024-05-09T07:27:44.640Z,49.01
2024-05-09T07:29:48.649Z,48.79
2024-05-09T07:31:51.744Z,47.41
2024-05-09T07:33:55.466Z,45.96
2024-05-09T07:35:58.163Z,46.44
2024-05-09T07:38:00.769Z,46.08
2024-05-09T07:40:05.799Z,48.54
2024-05-09T07:42:08.568Z,47.91
2024-05-09T07:44:11.089Z,45.34
2024-05-09T07:53:33.874Z,48.99
2024-05-09T07:55:02.734Z,46.36
2024-05-09T07:57:07.418Z,49.34
2024-05-09T07:59:10.007Z,46.69
2024-05-09T08:01:12.839Z,49.43
2024-05-09T08:03:15.481Z,49.14
2024-05-09T08:05:18.168Z,48.68
2024-05-09T08:07:20.940Z,49.63
2024-05-09T08:09:23.555Z,49.09
2024-05-09T08:11:26.488Z,48.14
2024-05-09T08:13:31.081Z,50.82
2024-05-09T08:15:33.653Z,47.21
2024-05-09T08:17:36.238Z,47.34
2024-05-09T08:19:41.114Z,47.34
2024-05-09T08:21:43.594Z,45.86
2024-05-09T08:23:46.095Z,47.37
2024-05-09T08:25:48.562Z,47.59
2024-05-09T08:27:52.695Z,45.34
2024-05-09T08:29:56.007Z,45.36
2024-05-09T08:31:59.732Z,44.12
2024-05-09T08:34:02.397Z,44.81
2024-05-09T08:36:05.231Z,43.12
2024-05-09T08:38:08.106Z,46.73
2024-05-09T08:40:23.678Z,46.03
2024-05-09T08:42:35.858Z,43.80
2024-05-09T08:44:39.686Z,47.43
2024-05-09T08:46:42.992Z,46.39
2024-05-09T08:48:47.138Z,41.07
2024-05-09T08:50:50.976Z,45.55
2024-05-09T08:52:54.081Z,44.15
2024-05-09T08:54:56.648Z,46.97
2024-05-09T08:56:59.992Z,46.20
2024-05-09T08:59:02.879Z,45.51
2024-05-09T09:01:05.788Z,44.21
2024-05-09T09:03:10.088Z,43.10
2024-05-09T09:05:24.683Z,45.11
2024-05-09T09:07:29.743Z,45.39
2024-05-09T09:09:33.480Z,46.56
2024-05-09T09:11:36.252Z,45.08
2024-05-09T09:13:44.663Z,47.37
2024-05-09T09:15:49.058Z,44.74
2024-05-09T09:17:59.501Z,42.80
2024-05-09T09:20:02.453Z,45.76
2024-05-09T09:22:06.474Z,45.78
2024-05-09T09:24:10.645Z,43.53
2024-05-09T09:26:16.809Z,46.23
2024-05-09T09:28:19.475Z,43.62
2024-05-09T09:30:34.078Z,44.35
2024-05-09T09:32:39.571Z,43.25
2024-05-09T09:34:42.774Z,43.41
2024-05-09T09:36:45.462Z,43.68
2024-05-09T09:38:51.243Z,42.19
2024-05-09T09:40:55.448Z,43.46
2024-05-09T09:42:58.592Z,44.95
2024-05-09T09:45:05.320Z,44.43
2024-05-09T09:47:09.331Z,43.17
2024-05-09T09:49:12.351Z,43.66
2024-05-09T09:51:17.832Z,48.20
2024-05-09T09:53:21.164Z,47.34
2024-05-09T09:55:25.223Z,46.68
2024-05-09T09:57:28.477Z,48.16
2024-05-09T09:59:36.412Z,47.00
2024-05-09T10:01:38.986Z,49.88
2024-05-09T10:03:43.048Z,48.04
2024-05-09T10:05:47.352Z,45.03
2024-05-09T10:07:50.331Z,48.58
2024-05-09T10:09:55.822Z,46.42
2024-05-09T10:12:01.396Z,45.78
2024-05-09T10:14:04.009Z,46.65
2024-05-09T10:16:10.387Z,50.70
2024-05-09T10:18:13.505Z,48.65
2024-05-09T10:20:21.961Z,45.94
2024-05-09T10:22:28.913Z,46.25
2024-05-09T10:24:49.785Z,48.58
2024-05-09T10:26:55.830Z,46.72
2024-05-09T10:28:59.140Z,45.90
2024-05-09T10:31:02.870Z,46.39
2024-05-09T10:33:10.486Z,47.35
2024-05-09T10:35:15.207Z,48.54
2024-05-09T10:37:19.016Z,46.14
2024-05-09T10:39:21.861Z,46.76
2024-05-09T10:41:24.467Z,45.91
2024-05-09T10:43:27.192Z,47.56
2024-05-09T10:45:29.745Z,44.40
2024-05-09T10:47:36.864Z,47.63
2024-05-09T10:49:39.748Z,49.05
2024-05-09T10:51:42.724Z,47.38
2024-05-09T10:53:45.978Z,48.15
2024-05-09T10:56:01.334Z,48.77
2024-05-09T10:58:03.989Z,49.53
2024-05-09T11:00:10.182Z,42.99
2024-05-09T11:02:17.016Z,44.97
2024-05-09T11:04:20.263Z,44.46
2024-05-09T11:06:24.403Z,45.38
2024-05-09T11:08:27.093Z,43.66
2024-05-09T11:10:33.843Z,43.20
2024-05-09T11:12:37.127Z,42.21
2024-05-09T11:14:39.700Z,42.44
2024-05-09T11:16:43.238Z,43.89
2024-05-09T11:18:53.295Z,42.69
2024-05-09T11:20:56.555Z,41.96
2024-05-09T11:22:59.088Z,40.94
2024-05-09T11:25:01.790Z,40.41
2024-05-09T11:27:05.056Z,40.09
2024-05-09T11:29:08.213Z,41.29
2024-05-09T11:31:11.187Z,40.23
2024-05-09T11:33:14.927Z,41.11
2024-05-09T11:35:19.608Z,39.63
2024-05-09T11:37:22.195Z,40.56
2024-05-09T11:39:25.274Z,40.06
2024-05-09T11:41:31.293Z,40.06
2024-05-09T11:43:34.079Z,39.79
2024-05-09T11:45:36.693Z,38.98
2024-05-09T11:47:40.164Z,38.73
2024-05-09T11:49:45.902Z,38.37
2024-05-09T11:51:48.509Z,38.24
2024-05-09T11:53:52.242Z,38.16
2024-05-09T11:55:54.733Z,38.86
2024-05-09T11:57:57.772Z,39.15
2024-05-09T12:00:00.456Z,38.94
2024-05-09T12:02:04.647Z,38.78
2024-05-09T12:04:07.449Z,38.53
2024-05-09T12:06:10.189Z,37.70
2024-05-09T12:08:13.133Z,36.82
2024-05-09T12:10:22.227Z,35.75
2024-05-09T12:12:28.761Z,34.95
2024-05-09T12:14:31.276Z,34.27
2024-05-09T12:16:33.867Z,33.90
2024-05-09T12:18:37.938Z,33.40
2024-05-09T12:20:40.581Z,31.62
2024-05-09T12:22:43.002Z,31.56
2024-05-09T12:24:45.498Z,31.05
2024-05-09T12:26:48.057Z,30.97
2024-05-09T12:28:50.538Z,31.44
2024-05-09T12:30:53.147Z,31.72
2024-05-09T12:32:55.807Z,31.23
2024-05-09T12:34:58.489Z,32.12
2024-05-09T12:37:01.136Z,32.47
2024-05-09T12:39:06.500Z,32.19
2024-05-09T12:41:10.840Z,32.07
2024-05-09T12:43:13.293Z,30.65
2024-05-09T12:45:15.786Z,30.85
2024-05-09T12:47:47.855Z,29.98
2024-05-09T12:49:56.347Z,30.23
2024-05-09T12:51:59.457Z,29.45
2024-05-09T12:54:02.947Z,29.72
2024-05-09T12:56:07.211Z,31.01
2024-05-09T12:58:11.631Z,32.13
2024-05-09T13:00:34.311Z,33.03
2024-05-09T13:02:40.936Z,33.00
2024-05-09T13:04:43.739Z,32.67
2024-05-09T13:06:46.355Z,32.73
2024-05-09T13:08:48.898Z,31.66
2024-05-09T13:10:51.691Z,30.75
2024-05-09T13:12:54.178Z,30.89
2024-05-09T13:14:56.719Z,31.10
2024-05-09T13:16:59.218Z,31.51
2024-05-09T13:19:01.634Z,32.31
2024-05-09T13:21:04.167Z,30.60
2024-05-09T13:23:08.358Z,30.16
2024-05-09T13:25:11.219Z,31.13
2024-05-09T13:27:13.690Z,30.52
2024-05-09T13:29:16.214Z,30.65
2024-05-09T13:31:20.197Z,29.77
2024-05-09T13:33:23.003Z,29.76
2024-05-09T13:35:25.626Z,29.85
2024-05-09T13:37:30.030Z,29.21
2024-05-09T13:39:32.665Z,29.39
2024-05-09T13:41:35.166Z,29.22
2024-05-09T13:43:39.159Z,29.17
2024-05-09T13:45:41.927Z,29.78
2024-05-09T13:47:44.599Z,29.89
2024-05-09T13:49:47.531Z,30.26
2024-05-09T13:51:50.142Z,30.66
2024-05-09T13:53:52.683Z,30.26
2024-05-09T13:55:55.279Z,30.58
2024-05-09T13:57:58.625Z,30.41
2024-05-09T14:00:32.132Z,30.48
2024-05-09T14:02:43.462Z,29.58
2024-05-09T14:04:49.207Z,30.44
2024-05-09T14:06:51.886Z,31.51
2024-05-09T14:08:55.648Z,32.87
2024-05-09T14:10:58.182Z,33.26
2024-05-09T14:13:01.371Z,33.37
2024-05-09T14:15:04.095Z,34.06
2024-05-09T14:17:25.430Z,33.84
2024-05-09T14:19:28.399Z,33.26
2024-05-09T14:21:30.961Z,34.33
2024-05-09T14:23:33.442Z,34.41
2024-05-09T14:25:40.547Z,33.95
2024-05-09T14:27:45.001Z,34.58
2024-05-09T14:29:47.486Z,35.65
2024-05-09T14:31:50.884Z,35.26
2024-05-09T14:33:53.743Z,35.23
2024-05-09T14:35:56.368Z,35.29
2024-05-09T14:37:59.146Z,36.35
2024-05-09T14:40:02.208Z,36.88
2024-05-09T14:42:04.895Z,36.65
2024-05-09T14:44:07.737Z,36.96
2024-05-09T14:46:10.571Z,35.81
2024-05-09T14:48:20.221Z,34.63
2024-05-09T14:50:28.133Z,33.93
2024-05-09T14:52:38.881Z,33.49
2024-05-09T14:54:41.357Z,33.59
2024-05-09T14:56:44.061Z,33.24
2024-05-09T14:58:46.492Z,33.23
2024-05-09T15:00:51.288Z,33.07
2024-05-09T15:02:54.684Z,32.53
2024-05-09T15:04:57.277Z,32.70
2024-05-09T15:07:01.318Z,32.89
2024-05-09T15:09:06.768Z,34.27
2024-05-09T15:11:09.405Z,35.14
2024-05-09T15:13:15.542Z,35.92
2024-05-09T15:15:20.498Z,37.10
2024-05-09T15:17:23.019Z,38.67
2024-05-09T15:19:25.646Z,39.08
2024-05-09T15:21:28.202Z,39.34
2024-05-09T15:23:31.353Z,35.58
2024-05-09T15:25:34.100Z,34.75
2024-05-09T15:27:38.639Z,35.42
2024-05-09T15:30:06.869Z,36.12
2024-05-09T15:32:15.024Z,36.67
2024-05-09T15:34:17.513Z,36.86
2024-05-09T15:36:20.820Z,37.43
2024-05-09T15:38:26.715Z,37.93
2024-05-09T15:40:37.238Z,38.43
2024-05-09T15:42:43.390Z,38.69
2024-05-09T15:44:53.059Z,39.45
2024-05-09T15:46:55.717Z,39.25
2024-05-09T15:48:58.640Z,39.39
2024-05-09T15:51:01.255Z,39.90
2024-05-09T15:53:03.761Z,40.32
2024-05-09T15:55:06.844Z,40.09
2024-05-09T15:57:09.543Z,40.95
2024-05-09T15:59:12.414Z,41.45
2024-05-09T16:01:15.220Z,41.98
2024-05-09T16:03:17.790Z,40.75
2024-05-09T16:05:20.363Z,40.67
2024-05-09T16:07:22.794Z,40.42
2024-05-09T16:09:25.232Z,40.47
2024-05-09T16:11:27.602Z,40.80
2024-05-09T16:13:30.023Z,41.48
2024-05-09T16:15:32.607Z,40.25
2024-05-09T16:17:35.488Z,40.11
2024-05-09T16:19:38.205Z,40.18
2024-05-09T16:21:40.708Z,40.73
2024-05-09T16:23:43.278Z,40.81
2024-05-09T16:25:48.558Z,40.78
2024-05-09T16:27:52.004Z,41.55
2024-05-09T16:30:04.137Z,42.02
2024-05-09T16:32:09.602Z,42.00
2024-05-09T16:34:12.514Z,42.59
2024-05-09T16:36:15.212Z,42.88
2024-05-09T16:38:17.870Z,42.97
2024-05-09T16:40:29.347Z,43.36
2024-05-09T16:42:41.605Z,43.62
2024-05-09T16:44:45.121Z,44.01
2024-05-09T16:46:47.778Z,44.84
2024-05-09T16:48:51.103Z,45.10
2024-05-09T16:50:53.543Z,45.26
2024-05-09T16:52:56.016Z,45.47
2024-05-09T16:54:58.541Z,45.92
2024-05-09T16:57:01.065Z,46.55
2024-05-09T16:59:03.659Z,46.14
2024-05-09T17:01:06.243Z,46.60
2024-05-09T17:03:10.920Z,47.03
2024-05-09T17:05:17.216Z,47.75
2024-05-09T17:07:20.996Z,47.97
2024-05-09T17:09:24.609Z,48.12
2024-05-09T17:11:27.066Z,48.47
2024-05-09T17:13:29.574Z,49.16
2024-05-09T17:15:33.427Z,49.46
2024-05-09T17:17:36.274Z,49.55
2024-05-09T17:19:40.824Z,49.92
2024-05-09T17:21:43.309Z,49.90
2024-05-09T17:23:47.022Z,50.70
2024-05-09T17:25:52.490Z,51.07
2024-05-09T17:27:55.060Z,51.12
2024-05-09T17:29:58.268Z,51.46
2024-05-09T17:32:01.924Z,51.76
2024-05-09T17:34:04.737Z,51.75
2024-05-09T17:36:07.615Z,52.22
2024-05-09T17:38:10.059Z,52.75
2024-05-09T17:40:16.961Z,52.45
2024-05-09T17:42:21.040Z,53.09
2024-05-09T17:44:55.576Z,53.23
2024-05-09T17:46:58.261Z,52.80
2024-05-09T17:49:02.311Z,52.82
2024-05-09T17:51:05.083Z,52.84
2024-05-09T17:53:07.596Z,52.93
2024-05-09T17:55:10.114Z,53.01
2024-05-09T17:57:12.622Z,52.77
2024-05-09T17:59:21.242Z,52.73
2024-05-09T18:01:26.052Z,53.03
2024-05-09T18:03:28.960Z,53.72
2024-05-09T18:05:31.949Z,53.57
2024-05-09T18:07:34.825Z,54.62
2024-05-09T18:09:37.408Z,54.29
2024-05-09T18:11:40.931Z,54.07
2024-05-09T18:13:43.483Z,54.46
2024-05-09T18:15:48.807Z,54.78
2024-05-09T18:17:53.264Z,55.08
2024-05-09T18:19:57.259Z,54.34
2024-05-09T18:21:59.785Z,54.53
2024-05-09T18:24:02.260Z,55.22
2024-05-09T18:26:05.926Z,56.59
2024-05-09T18:28:09.554Z,57.14
2024-05-09T18:30:24.196Z,56.72
2024-05-09T18:32:34.149Z,56.29
2024-05-09T18:34:36.698Z,57.07
2024-05-09T18:36:39.920Z,56.70
2024-05-09T18:38:43.074Z,56.59
2024-05-09T18:40:48.376Z,57.32
2024-05-09T18:42:53.445Z,58.11
2024-05-09T18:44:55.902Z,59.25
2024-05-09T18:46:58.829Z,59.93
2024-05-09T18:49:07.568Z,60.63
2024-05-09T18:51:11.125Z,61.08
2024-05-09T18:53:16.290Z,61.02
2024-05-09T18:55:19.003Z,61.77
2024-05-09T18:57:21.575Z,61.38
2024-05-09T18:59:24.073Z,62.27
2024-05-09T19:01:26.642Z,62.20
2024-05-09T19:03:29.435Z,62.32
2024-05-09T19:05:32.427Z,62.74
2024-05-09T19:07:35.799Z,62.76
2024-05-09T19:09:39.006Z,62.68
2024-05-09T19:11:41.650Z,63.02
2024-05-09T19:13:45.518Z,62.90
2024-05-09T19:15:48.836Z,63.12
2024-05-09T19:17:53.674Z,63.45
2024-05-09T19:19:56.973Z,64.28
2024-05-09T19:21:59.560Z,64.78
2024-05-09T19:24:02.091Z,66.38
2024-05-09T19:26:04.735Z,66.46
2024-05-09T19:28:07.370Z,68.30
2024-05-09T19:30:17.748Z,68.37
2024-05-09T19:32:27.941Z,69.13
2024-05-09T19:34:30.863Z,69.25
2024-05-09T19:36:36.729Z,69.62
2024-05-09T19:38:39.245Z,69.84
2024-05-09T19:40:41.894Z,70.31
2024-05-09T19:42:45.984Z,70.90
2024-05-09T19:44:49.720Z,71.01
2024-05-09T19:46:53.461Z,71.47
2024-05-09T19:48:56.454Z,71.28
2024-05-09T19:50:59.198Z,71.84
2024-05-09T19:53:03.061Z,72.27
2024-05-09T19:55:05.809Z,72.46
2024-05-09T19:57:08.588Z,72.81
2024-05-09T19:59:11.721Z,73.55
2024-05-09T20:01:15.513Z,73.35
2024-05-09T20:03:18.109Z,74.12
2024-05-09T20:05:20.864Z,74.80
2024-05-09T20:07:23.516Z,75.44
2024-05-09T20:09:25.988Z,76.05
2024-05-09T20:11:33.072Z,76.34
2024-05-09T20:13:37.164Z,76.22
2024-05-09T20:15:40.706Z,75.62
2024-05-09T20:17:43.734Z,76.26
2024-05-09T20:19:46.467Z,75.99
2024-05-09T20:21:49.032Z,76.07
2024-05-09T20:23:52.918Z,76.77
2024-05-09T20:25:55.396Z,76.42
2024-05-09T20:27:57.945Z,76.47
2024-05-09T20:30:00.456Z,77.28
2024-05-09T20:32:03.015Z,77.49
2024-05-09T20:34:06.181Z,78.05
2024-05-09T20:36:08.724Z,78.31
2024-05-09T20:38:11.358Z,77.87
2024-05-09T20:40:21.180Z,78.62
2024-05-09T20:42:28.121Z,79.43
2024-05-09T20:44:30.572Z,79.22
2024-05-09T20:46:34.432Z,79.17
2024-05-09T20:48:37.137Z,79.32
2024-05-09T20:50:42.014Z,80.06
2024-05-09T20:52:46.510Z,80.87
2024-05-09T20:54:48.981Z,80.77
2024-05-09T20:56:51.500Z,81.17
2024-05-09T20:58:54.044Z,80.96
2024-05-09T21:00:57.215Z,81.28
2024-05-09T21:02:59.896Z,81.58
2024-05-09T21:05:02.697Z,81.95
2024-05-09T21:07:06.003Z,81.68
2024-05-09T21:09:08.442Z,81.96
2024-05-09T21:11:11.006Z,81.53
2024-05-09T21:13:13.583Z,81.50
2024-05-09T21:15:16.111Z,81.42
2024-05-09T21:17:18.878Z,81.65
2024-05-09T21:19:21.530Z,81.76
2024-05-09T21:21:24.159Z,82.17
2024-05-09T21:23:26.614Z,82.08
2024-05-09T21:25:29.069Z,81.85
2024-05-09T21:27:31.615Z,82.02
2024-05-09T21:29:34.067Z,82.29
2024-05-09T21:31:36.573Z,82.21
2024-05-09T21:33:39.315Z,82.21
2024-05-09T21:35:42.341Z,81.70
2024-05-09T21:37:45.035Z,81.75
2024-05-09T21:39:48.087Z,80.81
2024-05-09T21:41:50.603Z,80.30
2024-05-09T21:43:53.029Z,80.36
2024-05-09T21:45:55.498Z,79.90
2024-05-09T21:47:58.165Z,78.83
2024-05-09T21:50:00.833Z,79.26
2024-05-09T21:52:03.390Z,79.33
2024-05-09T21:54:05.932Z,79.21
2024-05-09T21:56:08.680Z,78.84
2024-05-09T21:58:12.577Z,78.68
2024-05-09T22:00:28.039Z,78.66
2024-05-09T22:02:37.509Z,78.51
2024-05-09T22:04:40.350Z,78.66
2024-05-09T22:06:42.842Z,78.14
2024-05-09T22:08:45.432Z,78.74
2024-05-09T22:10:48.000Z,78.54
2024-05-09T22:12:50.607Z,78.34
2024-05-09T22:14:53.127Z,78.32
2024-05-09T22:16:55.687Z,78.19
2024-05-09T22:18:58.296Z,78.25
2024-05-09T22:21:00.800Z,78.22
2024-05-09T22:23:03.507Z,78.40
2024-05-09T22:25:06.328Z,78.21
2024-05-09T22:27:12.257Z,77.97
2024-05-09T22:29:14.715Z,78.02
2024-05-09T22:31:17.293Z,78.24
2024-05-09T22:33:19.918Z,78.31
2024-05-09T22:35:22.418Z,78.17
2024-05-09T22:37:24.906Z,78.15
2024-05-09T22:39:27.900Z,78.20
2024-05-09T22:41:30.351Z,78.47
2024-05-09T22:43:32.869Z,78.04
2024-05-09T22:45:35.548Z,78.33
2024-05-09T22:47:38.086Z,78.01
2024-05-09T22:49:40.960Z,78.34
2024-05-09T22:51:43.580Z,78.48
2024-05-09T22:53:46.021Z,78.35
2024-05-09T22:55:48.554Z,78.54
2024-05-09T22:57:50.998Z,78.32
2024-05-09T22:59:53.522Z,78.45
2024-05-09T23:01:56.122Z,78.59
2024-05-09T23:03:58.776Z,78.66
2024-05-09T23:06:01.300Z,78.87
2024-05-09T23:08:03.959Z,78.69
2024-05-09T23:10:13.180Z,78.71
2024-05-09T23:12:20.347Z,78.89
2024-05-09T23:14:22.825Z,78.63
2024-05-09T23:16:25.621Z,78.65
2024-05-09T23:18:28.418Z,78.86
2024-05-09T23:20:37.044Z,79.50
2024-05-09T23:22:41.880Z,79.37
2024-05-09T23:24:44.349Z,79.14
2024-05-09T23:26:46.828Z,79.00
2024-05-09T23:28:49.461Z,79.27
2024-05-09T23:30:51.959Z,79.17
2024-05-09T23:32:54.890Z,78.96
2024-05-09T23:34:57.482Z,78.82
2024-05-09T23:37:00.013Z,78.87
2024-05-09T23:39:02.514Z,78.67
2024-05-09T23:41:06.550Z,78.76
2024-05-09T23:43:10.172Z,78.51
2024-05-09T23:45:13.028Z,78.49
2024-05-09T23:47:18.136Z,78.17
2024-05-09T23:49:20.662Z,78.23
2024-05-09T23:51:23.249Z,77.78
2024-05-09T23:53:25.728Z,77.58
2024-05-09T23:55:29.337Z,77.74
2024-05-09T23:57:31.910Z,77.75
2024-05-09T23:59:34.627Z,77.54
